createdAt,value
2023-01-31T00:01:16.835Z,-1.26
2023-01-31T00:03:45.097Z,-1.24
2023-01-31T00:06:22.214Z,-1.10
2023-01-31T00:08:50.123Z,-1.16
2023-01-31T00:11:19.367Z,-1.23
2023-01-31T00:13:46.910Z,-0.98
2023-01-31T00:16:15.251Z,-1.00
2023-01-31T00:18:42.689Z,-1.07
2023-01-31T00:21:12.441Z,-1.04
2023-01-31T00:23:40.800Z,-1.18
2023-01-31T00:26:16.020Z,-1.18
2023-01-31T00:28:44.264Z,-1.25
2023-01-31T00:31:12.499Z,-1.26
2023-01-31T00:33:41.163Z,-1.25
2023-01-31T00:36:10.399Z,-1.25
2023-01-31T00:38:37.861Z,-1.12
2023-01-31T00:41:05.576Z,-1.19
2023-01-31T00:43:32.800Z,-1.17
2023-01-31T00:46:00.130Z,-1.11
2023-01-31T00:48:26.978Z,-1.02
2023-01-31T00:50:53.931Z,-1.21
2023-01-31T00:53:23.912Z,-1.10
2023-01-31T00:55:56.373Z,-1.10
2023-01-31T00:58:23.059Z,-1.28
2023-01-31T01:00:49.853Z,-1.28
2023-01-31T01:03:16.578Z,-1.38
2023-01-31T01:05:43.165Z,-1.38
2023-01-31T01:08:10.215Z,-1.47
2023-01-31T01:10:37.031Z,-1.31
2023-01-31T01:13:05.812Z,-1.33
2023-01-31T01:15:33.165Z,-1.23
2023-01-31T01:17:59.765Z,-1.46
2023-01-31T01:20:26.426Z,-1.19
2023-01-31T01:22:53.586Z,-1.33
2023-01-31T01:25:20.759Z,-1.38
2023-01-31T01:27:47.650Z,-1.31
2023-01-31T01:30:14.389Z,-1.30
2023-01-31T01:32:41.070Z,-1.17
2023-01-31T01:35:08.038Z,-1.11
2023-01-31T01:37:34.754Z,-1.24
2023-01-31T01:40:01.401Z,-1.17
2023-01-31T01:42:28.544Z,-1.08
2023-01-31T01:44:58.173Z,-1.29
2023-01-31T01:47:50.126Z,-1.30
2023-01-31T01:50:42.783Z,-1.11
2023-01-31T01:53:13.749Z,-1.09
2023-01-31T01:55:42.327Z,-1.06
2023-01-31T01:58:20.029Z,-1.01
2023-01-31T02:00:47.566Z,-1.18
2023-01-31T02:03:16.056Z,-0.90
2023-01-31T02:05:48.008Z,-0.98
2023-01-31T02:08:18.171Z,-0.86
2023-01-31T02:10:53.641Z,-1.00
2023-01-31T02:13:21.172Z,-0.77
2023-01-31T02:15:48.227Z,-0.94
2023-01-31T02:18:16.042Z,-1.06
2023-01-31T02:21:13.367Z,-0.93
2023-01-31T02:23:42.971Z,-0.92
2023-01-31T02:26:33.893Z,-0.91
2023-01-31T02:29:06.145Z,-0.97
2023-01-31T02:31:36.005Z,-0.98
2023-01-31T02:34:12.612Z,-1.07
2023-01-31T02:37:09.693Z,-0.99
2023-01-31T02:39:45.643Z,-1.02
2023-01-31T02:43:05.745Z,-0.90
2023-01-31T02:45:42.091Z,-1.08
2023-01-31T02:48:38.911Z,-0.94
2023-01-31T02:51:10.856Z,-0.88
2023-01-31T02:53:52.323Z,-1.02
2023-01-31T02:56:30.679Z,-1.04
2023-01-31T02:59:09.729Z,-0.96
2023-01-31T03:01:47.623Z,-0.92
2023-01-31T03:04:14.896Z,-0.90
2023-01-31T03:07:00.321Z,-0.94
2023-01-31T03:09:31.634Z,-0.96
2023-01-31T03:12:30.727Z,-0.91
2023-01-31T03:15:24.904Z,-0.86
2023-01-31T03:18:00.654Z,-0.86
2023-01-31T03:20:36.474Z,-0.97
2023-01-31T03:23:13.648Z,-0.96
2023-01-31T03:25:41.115Z,-0.89
2023-01-31T03:28:14.764Z,-1.10
2023-01-31T03:30:54.384Z,-1.26
2023-01-31T03:33:27.250Z,-1.03
2023-01-31T03:36:00.489Z,-1.28
2023-01-31T03:38:34.795Z,-1.03
2023-01-31T03:41:34.501Z,-1.08
2023-01-31T03:44:12.245Z,-1.13
2023-01-31T03:46:46.040Z,-1.11
2023-01-31T03:49:16.500Z,-1.30
2023-01-31T03:51:52.460Z,-1.46
2023-01-31T03:54:25.222Z,-1.31
2023-01-31T03:57:08.754Z,-1.34
2023-01-31T03:59:39.448Z,-1.41
2023-01-31T04:02:10.574Z,-1.50
2023-01-31T04:04:42.638Z,-1.32
2023-01-31T04:07:09.865Z,-1.36
2023-01-31T04:09:38.264Z,-1.30
2023-01-31T04:12:05.615Z,-1.31
2023-01-31T04:14:32.543Z,-1.16
2023-01-31T04:16:59.353Z,-1.40
2023-01-31T04:19:26.011Z,-1.03
2023-01-31T04:21:52.632Z,-1.25
2023-01-31T04:24:19.349Z,-1.08
2023-01-31T04:26:46.020Z,-1.00
2023-01-31T04:29:12.702Z,-1.09
2023-01-31T04:31:40.449Z,-1.09
2023-01-31T04:34:07.971Z,-1.22
2023-01-31T04:36:34.642Z,-1.21
2023-01-31T04:39:01.232Z,-1.31
2023-01-31T04:41:27.823Z,-1.21
2023-01-31T04:43:54.482Z,-1.33
2023-01-31T04:46:21.192Z,-1.27
2023-01-31T04:48:47.987Z,-1.46
2023-01-31T04:51:14.689Z,-1.43
2023-01-31T04:53:44.046Z,-1.30
2023-01-31T04:56:10.884Z,-1.58
2023-01-31T04:58:37.473Z,-1.46
2023-01-31T05:01:04.279Z,-1.37
2023-01-31T05:03:31.062Z,-1.31
2023-01-31T05:05:58.258Z,-1.24
2023-01-31T05:08:25.052Z,-1.18
2023-01-31T05:10:58.218Z,-1.17
2023-01-31T05:13:25.400Z,-1.14
2023-01-31T05:15:52.089Z,-1.11
2023-01-31T05:18:18.747Z,-1.13
2023-01-31T05:20:45.587Z,-0.97
2023-01-31T05:23:13.415Z,-0.96
2023-01-31T05:25:40.074Z,-0.97
2023-01-31T05:28:06.840Z,-1.06
2023-01-31T05:30:33.700Z,-1.06
2023-01-31T05:33:00.673Z,-0.90
2023-01-31T05:35:27.367Z,-1.10
2023-01-31T05:37:55.338Z,-1.11
2023-01-31T05:40:23.177Z,-1.13
2023-01-31T05:43:03.111Z,-0.81
2023-01-31T05:45:31.107Z,-0.82
2023-01-31T05:47:58.187Z,-0.84
2023-01-31T05:50:24.822Z,-0.81
2023-01-31T05:52:59.769Z,-0.77
2023-01-31T05:55:27.701Z,-0.81
2023-01-31T05:57:54.532Z,-0.73
2023-01-31T06:00:21.893Z,-0.96
2023-01-31T06:02:49.064Z,-0.78
2023-01-31T06:05:16.377Z,-0.93
2023-01-31T06:07:42.968Z,-0.66
2023-01-31T06:10:11.573Z,-0.58
2023-01-31T06:12:38.181Z,-0.62
2023-01-31T06:15:05.184Z,-0.61
2023-01-31T06:17:31.802Z,-0.65
2023-01-31T06:19:59.028Z,-0.51
2023-01-31T06:22:25.770Z,-0.38
2023-01-31T06:24:52.500Z,-0.37
2023-01-31T06:27:19.153Z,-0.37
2023-01-31T06:29:45.723Z,-0.30
2023-01-31T06:32:12.335Z,-0.50
2023-01-31T06:34:38.957Z,-0.38
2023-01-31T06:37:09.116Z,-0.48
2023-01-31T06:39:35.666Z,-0.37
2023-01-31T06:42:02.386Z,-0.32
2023-01-31T06:44:29.057Z,-0.44
2023-01-31T06:46:56.100Z,-0.29
2023-01-31T06:49:22.809Z,-0.27
2023-01-31T06:51:49.496Z,-0.38
2023-01-31T06:54:16.132Z,-0.30
2023-01-31T06:56:42.787Z,-0.36
2023-01-31T06:59:09.430Z,-0.24
2023-01-31T07:01:36.135Z,-0.11
2023-01-31T07:04:02.834Z,-0.15
2023-01-31T07:06:29.456Z,0.05
2023-01-31T07:08:56.211Z,0.10
2023-01-31T07:11:22.885Z,0.06
2023-01-31T07:13:50.425Z,0.08
2023-01-31T07:16:17.387Z,-0.03
2023-01-31T07:18:44.119Z,-0.10
2023-01-31T07:21:10.977Z,-0.12
2023-01-31T07:23:37.660Z,-0.14
2023-01-31T07:26:05.678Z,-0.06
2023-01-31T07:28:32.364Z,-0.14
2023-01-31T07:31:12.283Z,0.01
2023-01-31T07:33:40.042Z,-0.05
2023-01-31T07:36:08.345Z,0.02
2023-01-31T07:38:35.539Z,0.10
2023-01-31T07:41:04.145Z,0.18
2023-01-31T07:43:32.125Z,0.19
2023-01-31T07:45:59.000Z,0.07
2023-01-31T07:48:26.213Z,0.13
2023-01-31T07:50:58.757Z,0.29
2023-01-31T07:53:27.768Z,0.24
2023-01-31T07:55:54.345Z,0.26
2023-01-31T07:58:20.888Z,-0.34
2023-01-31T08:01:06.312Z,0.25
2023-01-31T08:03:33.720Z,0.16
2023-01-31T08:06:08.390Z,-0.52
2023-01-31T08:08:36.171Z,0.44
2023-01-31T08:11:05.169Z,0.46
2023-01-31T08:13:33.777Z,0.62
2023-01-31T08:16:00.430Z,0.70
2023-01-31T08:18:27.067Z,0.84
2023-01-31T08:20:54.005Z,0.75
2023-01-31T08:23:20.603Z,0.43
2023-01-31T08:25:47.292Z,0.71
2023-01-31T08:28:13.961Z,0.96
2023-01-31T08:30:42.486Z,0.84
2023-01-31T08:33:10.765Z,1.08
2023-01-31T08:35:37.980Z,1.03
2023-01-31T08:38:16.066Z,1.11
2023-01-31T08:40:44.263Z,0.95
2023-01-31T08:43:11.223Z,0.81
2023-01-31T08:45:38.050Z,0.88
2023-01-31T08:48:05.201Z,1.01
2023-01-31T08:50:32.936Z,1.00
2023-01-31T08:53:04.275Z,0.94
2023-01-31T08:55:31.787Z,0.93
2023-01-31T08:58:00.399Z,0.95
2023-01-31T09:00:27.348Z,0.95
2023-01-31T09:02:56.211Z,1.29
2023-01-31T09:05:23.548Z,1.29
2023-01-31T09:07:50.148Z,0.97
2023-01-31T09:10:18.504Z,1.12
2023-01-31T09:12:45.464Z,1.19
2023-01-31T09:15:12.660Z,1.12
2023-01-31T09:17:40.560Z,1.26
2023-01-31T09:20:10.212Z,1.28
2023-01-31T09:22:37.438Z,1.55
2023-01-31T09:25:04.899Z,1.74
2023-01-31T09:27:32.183Z,2.03
2023-01-31T09:29:58.888Z,1.94
2023-01-31T09:32:25.484Z,1.87
2023-01-31T09:34:52.161Z,1.63
2023-01-31T09:37:18.796Z,1.86
2023-01-31T09:39:45.434Z,2.10
2023-01-31T09:42:33.770Z,2.42
2023-01-31T09:45:04.523Z,2.41
2023-01-31T09:47:34.118Z,2.68
2023-01-31T09:50:03.625Z,2.53
2023-01-31T09:52:32.212Z,2.17
2023-01-31T09:54:59.568Z,2.43
2023-01-31T09:58:00.702Z,2.50
2023-01-31T10:00:46.740Z,2.07
2023-01-31T10:03:31.842Z,2.16
2023-01-31T10:06:17.439Z,2.16
2023-01-31T10:08:51.361Z,2.21
2023-01-31T10:11:42.444Z,2.60
2023-01-31T10:14:11.808Z,2.32
2023-01-31T10:16:46.403Z,2.17
2023-01-31T10:19:21.542Z,2.24
2023-01-31T10:21:54.036Z,2.15
2023-01-31T10:24:51.823Z,2.27
2023-01-31T10:27:33.512Z,1.93
2023-01-31T10:30:03.052Z,2.25
2023-01-31T10:32:40.230Z,2.40
2023-01-31T10:35:21.406Z,2.26
2023-01-31T10:37:54.326Z,1.90
2023-01-31T10:40:35.742Z,1.92
2023-01-31T10:43:15.828Z,2.04
2023-01-31T10:45:42.509Z,2.14
2023-01-31T10:48:18.668Z,2.41
2023-01-31T10:51:04.051Z,2.63
2023-01-31T10:54:13.149Z,2.81
2023-01-31T10:56:46.893Z,2.74
2023-01-31T10:59:26.245Z,2.88
2023-01-31T11:01:53.145Z,2.64
2023-01-31T11:04:31.862Z,2.54
2023-01-31T11:07:01.198Z,2.75
2023-01-31T11:09:32.677Z,2.80
2023-01-31T11:12:01.785Z,2.80
2023-01-31T11:14:30.064Z,2.41
2023-01-31T11:17:36.980Z,1.97
2023-01-31T11:20:06.657Z,1.75
2023-01-31T11:22:37.872Z,1.92
2023-01-31T11:25:06.350Z,1.79
2023-01-31T11:27:41.896Z,1.64
2023-01-31T11:30:29.034Z,1.33
2023-01-31T11:32:56.088Z,1.48
2023-01-31T11:35:31.450Z,1.35
2023-01-31T11:38:00.521Z,1.26
2023-01-31T11:40:33.782Z,1.24
2023-01-31T11:43:22.155Z,1.39
2023-01-31T11:46:02.807Z,1.14
2023-01-31T11:48:40.314Z,1.40
2023-01-31T11:51:07.563Z,1.13
2023-01-31T11:53:49.667Z,1.38
2023-01-31T11:56:23.019Z,1.19
2023-01-31T11:58:54.162Z,1.14
2023-01-31T12:01:23.232Z,1.08
2023-01-31T12:04:02.727Z,1.20
2023-01-31T12:06:34.654Z,1.13
2023-01-31T12:09:03.930Z,1.01
2023-01-31T12:11:35.677Z,1.08
2023-01-31T12:14:13.262Z,1.04
2023-01-31T12:16:39.959Z,1.09
2023-01-31T12:19:12.673Z,1.09
2023-01-31T12:22:04.086Z,1.18
2023-01-31T12:24:37.360Z,1.10
2023-01-31T12:27:39.440Z,1.09
2023-01-31T12:30:39.782Z,1.11
2023-01-31T12:33:26.765Z,1.19
2023-01-31T12:36:19.415Z,0.85
2023-01-31T12:38:48.892Z,1.30
2023-01-31T12:41:18.453Z,1.33
2023-01-31T12:44:04.022Z,1.29
2023-01-31T12:46:33.849Z,1.25
2023-01-31T12:49:38.999Z,1.22
2023-01-31T12:52:29.482Z,1.35
2023-01-31T12:55:13.624Z,1.40
2023-01-31T12:57:40.181Z,1.29
2023-01-31T13:00:36.013Z,1.29
2023-01-31T13:03:26.446Z,1.27
2023-01-31T13:06:06.438Z,1.40
2023-01-31T13:08:36.355Z,1.24
2023-01-31T13:11:07.897Z,1.42
2023-01-31T13:13:52.952Z,1.38
2023-01-31T13:16:29.255Z,1.42
2023-01-31T13:19:01.740Z,1.00
2023-01-31T13:21:38.720Z,1.49
2023-01-31T13:24:27.224Z,1.53
2023-01-31T13:27:02.612Z,1.57
2023-01-31T13:29:35.198Z,1.61
2023-01-31T13:32:07.016Z,1.47
2023-01-31T13:34:51.976Z,1.64
2023-01-31T13:37:21.459Z,1.65
2023-01-31T13:39:52.382Z,1.64
2023-01-31T13:42:19.477Z,1.56
2023-01-31T13:44:47.525Z,1.59
2023-01-31T13:47:30.430Z,1.64
2023-01-31T13:50:01.769Z,1.74
2023-01-31T13:52:32.157Z,1.84
2023-01-31T13:55:08.474Z,1.74
2023-01-31T13:57:45.578Z,1.50
2023-01-31T14:00:34.233Z,1.59
2023-01-31T14:03:09.029Z,1.66
2023-01-31T14:05:50.751Z,1.52
2023-01-31T14:08:32.662Z,1.58
2023-01-31T14:11:02.046Z,1.42
2023-01-31T14:13:40.157Z,1.53
2023-01-31T14:16:31.717Z,1.48
2023-01-31T14:18:58.416Z,1.19
2023-01-31T14:21:31.077Z,1.34
2023-01-31T14:24:04.054Z,1.23
2023-01-31T14:26:43.175Z,1.34
2023-01-31T14:29:15.051Z,1.31
2023-01-31T14:31:44.269Z,1.23
2023-01-31T14:34:26.209Z,1.17
2023-01-31T14:37:07.954Z,1.16
2023-01-31T14:39:52.329Z,1.16
2023-01-31T14:43:02.150Z,1.02
2023-01-31T14:46:05.971Z,1.20
2023-01-31T14:48:53.549Z,1.02
2023-01-31T14:51:32.267Z,0.85
2023-01-31T14:54:19.085Z,0.82
2023-01-31T14:56:54.218Z,0.53
2023-01-31T14:59:41.865Z,0.76
2023-01-31T15:02:33.606Z,0.86
2023-01-31T15:05:06.240Z,0.55
2023-01-31T15:07:33.800Z,0.76
2023-01-31T15:10:00.753Z,0.56
2023-01-31T15:12:52.181Z,0.70
2023-01-31T15:15:36.689Z,0.72
2023-01-31T15:18:13.205Z,0.69
2023-01-31T15:20:45.660Z,0.71
2023-01-31T15:23:20.994Z,0.68
2023-01-31T15:25:49.021Z,0.68
2023-01-31T15:28:19.721Z,0.60
2023-01-31T15:30:47.488Z,0.56
2023-01-31T15:33:17.775Z,0.64
2023-01-31T15:36:02.688Z,0.54
2023-01-31T15:38:43.628Z,0.54
2023-01-31T15:41:26.508Z,0.63
2023-01-31T15:44:09.994Z,0.65
2023-01-31T15:46:36.622Z,0.65
2023-01-31T15:49:36.674Z,0.66
2023-01-31T15:52:08.054Z,0.74
2023-01-31T15:54:35.641Z,0.67
2023-01-31T15:57:03.543Z,0.69
2023-01-31T15:59:33.254Z,0.61
2023-01-31T16:02:04.834Z,0.68
2023-01-31T16:04:31.455Z,0.70
2023-01-31T16:06:59.194Z,0.75
2023-01-31T16:09:29.893Z,0.74
2023-01-31T16:11:59.150Z,0.82
2023-01-31T16:14:26.944Z,0.80
2023-01-31T16:16:58.242Z,0.78
2023-01-31T16:19:37.860Z,0.84
2023-01-31T16:22:28.567Z,0.87
2023-01-31T16:25:00.714Z,0.65
2023-01-31T16:27:32.775Z,0.65
2023-01-31T16:30:00.401Z,0.79
2023-01-31T16:32:33.721Z,0.78
2023-01-31T16:35:04.969Z,0.69
2023-01-31T16:37:40.758Z,0.63
2023-01-31T16:40:25.066Z,0.75
2023-01-31T16:43:10.185Z,0.62
2023-01-31T16:45:37.115Z,0.65
2023-01-31T16:48:22.192Z,0.69
2023-01-31T16:50:53.184Z,0.74
2023-01-31T16:53:34.571Z,0.72
2023-01-31T16:56:13.196Z,0.74
2023-01-31T16:58:51.062Z,0.72
2023-01-31T17:01:24.783Z,0.67
2023-01-31T17:04:03.314Z,0.74
2023-01-31T17:06:31.145Z,0.64
2023-01-31T17:08:58.442Z,0.60
2023-01-31T17:11:41.523Z,0.64
2023-01-31T17:14:09.338Z,0.68
2023-01-31T17:16:35.920Z,0.51
2023-01-31T17:19:02.436Z,0.64
2023-01-31T17:21:29.973Z,0.34
2023-01-31T17:23:56.588Z,0.52
2023-01-31T17:26:23.678Z,0.36
2023-01-31T17:29:00.821Z,0.39
2023-01-31T17:31:29.599Z,0.50
2023-01-31T17:33:56.764Z,0.43
2023-01-31T17:36:23.834Z,0.41
2023-01-31T17:38:52.027Z,0.45
2023-01-31T17:41:21.004Z,0.49
2023-01-31T17:43:47.627Z,0.41
2023-01-31T17:46:16.332Z,0.32
2023-01-31T17:48:43.576Z,0.28
2023-01-31T17:51:11.144Z,0.44
2023-01-31T17:53:48.806Z,0.44
2023-01-31T17:56:17.688Z,0.44
2023-01-31T17:58:44.567Z,0.41
2023-01-31T18:01:13.940Z,0.48
2023-01-31T18:03:40.698Z,0.44
2023-01-31T18:06:08.888Z,0.30
2023-01-31T18:08:35.780Z,0.40
2023-01-31T18:11:04.510Z,0.32
2023-01-31T18:13:31.278Z,0.33
2023-01-31T18:16:06.381Z,0.37
2023-01-31T18:18:33.324Z,0.33
2023-01-31T18:20:59.981Z,0.23
2023-01-31T18:23:26.742Z,0.27
2023-01-31T18:25:53.350Z,0.22
2023-01-31T18:28:19.944Z,0.08
2023-01-31T18:30:46.605Z,0.27
2023-01-31T18:33:13.205Z,0.26
2023-01-31T18:35:39.833Z,0.22
2023-01-31T18:38:06.835Z,0.27
2023-01-31T18:40:33.622Z,0.16
2023-01-31T18:43:00.342Z,0.35
2023-01-31T18:45:26.908Z,0.11
2023-01-31T18:47:53.604Z,0.13
2023-01-31T18:50:20.205Z,0.18
2023-01-31T18:52:47.410Z,0.14
2023-01-31T18:55:14.029Z,0.09
2023-01-31T18:57:40.606Z,0.16
2023-01-31T19:00:08.249Z,0.35
2023-01-31T19:02:34.925Z,0.33
2023-01-31T19:05:02.112Z,0.38
2023-01-31T19:07:28.740Z,0.35
2023-01-31T19:09:55.538Z,0.06
2023-01-31T19:12:22.125Z,0.37
2023-01-31T19:14:48.702Z,0.24
2023-01-31T19:17:15.885Z,0.29
2023-01-31T19:19:42.721Z,0.35
2023-01-31T19:22:09.384Z,0.18
2023-01-31T19:24:36.161Z,0.23
2023-01-31T19:27:02.710Z,0.22
2023-01-31T19:29:29.331Z,0.12
2023-01-31T19:31:55.956Z,0.20
2023-01-31T19:34:23.101Z,0.21
2023-01-31T19:36:49.834Z,0.18
2023-01-31T19:39:16.532Z,0.03
2023-01-31T19:41:43.116Z,0.03
2023-01-31T19:44:10.480Z,0.08
2023-01-31T19:46:38.003Z,-0.09
2023-01-31T19:49:04.999Z,0.02
2023-01-31T19:51:31.991Z,0.01
2023-01-31T19:54:01.435Z,0.05
2023-01-31T19:56:28.856Z,-0.01
2023-01-31T19:58:55.771Z,-0.05
2023-01-31T20:01:22.849Z,0.03
2023-01-31T20:03:50.243Z,-0.04
2023-01-31T20:06:22.010Z,-0.04
2023-01-31T20:08:53.821Z,0.01
2023-01-31T20:11:20.739Z,-0.08
2023-01-31T20:13:52.902Z,-0.07
2023-01-31T20:16:21.612Z,-0.13
2023-01-31T20:18:49.951Z,-0.19
2023-01-31T20:21:19.251Z,-0.29
2023-01-31T20:23:45.937Z,-0.26
2023-01-31T20:26:13.339Z,-0.26
2023-01-31T20:28:40.236Z,-0.42
2023-01-31T20:31:10.195Z,-0.38
2023-01-31T20:33:37.418Z,-0.41
2023-01-31T20:36:05.342Z,-0.48
2023-01-31T20:38:32.614Z,-0.42
2023-01-31T20:40:59.404Z,-0.37
2023-01-31T20:43:27.280Z,-0.33
2023-01-31T20:46:01.164Z,-0.59
2023-01-31T20:48:27.784Z,-0.77
2023-01-31T20:50:58.231Z,-0.61
2023-01-31T20:53:25.339Z,-0.52
2023-01-31T20:56:00.965Z,-0.53
2023-01-31T20:58:29.662Z,-0.65
2023-01-31T21:00:57.733Z,-0.68
2023-01-31T21:03:24.785Z,-0.59
2023-01-31T21:05:52.286Z,-0.82
2023-01-31T21:08:21.199Z,-0.68
2023-01-31T21:10:52.891Z,-0.80
2023-01-31T21:13:20.611Z,-0.71
2023-01-31T21:15:55.700Z,-0.75
2023-01-31T21:18:26.329Z,-0.87
2023-01-31T21:20:53.218Z,-0.67
2023-01-31T21:23:19.899Z,-0.87
2023-01-31T21:25:46.526Z,-0.67
2023-01-31T21:28:13.177Z,-0.76
2023-01-31T21:30:40.259Z,-0.78
2023-01-31T21:33:07.179Z,-0.64
2023-01-31T21:35:33.837Z,-0.81
2023-01-31T21:38:00.520Z,-0.66
2023-01-31T21:40:27.289Z,-0.63
2023-01-31T21:42:54.787Z,-0.66
2023-01-31T21:45:39.635Z,-0.83
2023-01-31T21:48:29.989Z,-0.69
2023-01-31T21:50:57.269Z,-0.66
2023-01-31T21:53:24.207Z,-0.81
2023-01-31T21:55:50.903Z,-0.82
2023-01-31T21:58:17.544Z,-0.74
2023-01-31T22:00:44.423Z,-0.80
2023-01-31T22:03:11.384Z,-0.70
2023-01-31T22:05:38.353Z,-0.68
2023-01-31T22:08:05.435Z,-0.76
2023-01-31T22:10:32.242Z,-0.87
2023-01-31T22:12:58.951Z,-0.75
2023-01-31T22:15:25.664Z,-0.69
2023-01-31T22:17:53.013Z,-0.74
2023-01-31T22:20:20.343Z,-0.71
2023-01-31T22:22:48.622Z,-0.88
2023-01-31T22:25:15.646Z,-0.90
2023-01-31T22:27:42.486Z,-0.77
2023-01-31T22:30:16.159Z,-0.90
2023-01-31T22:32:43.569Z,-0.91
2023-01-31T22:35:10.616Z,-0.87
2023-01-31T22:37:37.252Z,-0.92
2023-01-31T22:40:04.606Z,-0.92
2023-01-31T22:42:31.252Z,-0.79
2023-01-31T22:44:57.874Z,-0.84
2023-01-31T22:47:25.044Z,-0.90
2023-01-31T22:49:51.675Z,-0.92
2023-01-31T22:52:18.302Z,-0.69
2023-01-31T22:54:44.893Z,-0.64
2023-01-31T22:57:11.595Z,-0.61
2023-01-31T22:59:38.181Z,-0.58
2023-01-31T23:02:05.054Z,-0.50
2023-01-31T23:04:31.684Z,-0.75
2023-01-31T23:06:58.294Z,-0.56
2023-01-31T23:09:24.913Z,-0.71
2023-01-31T23:11:51.566Z,-0.53
2023-01-31T23:14:18.252Z,-0.42
2023-01-31T23:17:03.535Z,-0.44
2023-01-31T23:19:30.277Z,-0.46
2023-01-31T23:21:56.872Z,-0.39
2023-01-31T23:24:24.833Z,-0.46
2023-01-31T23:26:51.585Z,-0.80
2023-01-31T23:29:18.283Z,-0.30
2023-01-31T23:31:46.167Z,-0.40
2023-01-31T23:34:13.131Z,-0.50
2023-01-31T23:36:39.768Z,-0.40
2023-01-31T23:39:06.539Z,-0.55
2023-01-31T23:41:33.158Z,-0.55
2023-01-31T23:43:59.741Z,-0.32
2023-01-31T23:46:26.436Z,-0.33
2023-01-31T23:48:53.288Z,-0.45
2023-01-31T23:51:19.859Z,-0.36
2023-01-31T23:53:46.540Z,-0.33
2023-01-31T23:56:13.175Z,-0.49
2023-01-31T23:58:39.781Z,-0.41
